Time;durP1;ratioP1;P1;durP2;ratioP2;P2;SDS_P1;SDS_P2;PMS_P1;PMS_P2;Temp;Humidity;BMP_temperature;BMP_pressure;BME280_temperature;BME280_humidity;BME280_pressure;Samples;Min_cycle;Max_cycle;Signal;HPM_P1;HPM_P2
2020/12/24 06:11:59;;;;;;;25.90;14.53;;;;;;;0.17;75.39;100031.62;1747050;79;948958;-60
2020/12/24 06:14:31;;;;;;;27.85;15.00;;;;;;;0.20;75.32;100034.05;1796253;79;21655;-62
2020/12/24 06:17:04;;;;;;;27.52;16.40;;;;;;;0.23;75.16;100035.98;1837138;76;21150;-63
2020/12/24 06:19:38;;;;;;;26.60;14.35;;;;;;;0.25;74.92;100040.59;1835647;78;21664;-60
2020/12/24 06:22:08;;;;;;;25.68;15.20;;;;;;;0.28;74.80;100042.16;1811392;78;21264;-59
2020/12/24 06:24:51;;;;;;;27.80;15.15;;;;;;;0.29;74.58;100041.70;1845411;77;21516;-58
2020/12/24 06:27:42;;;;;;;29.67;15.18;;;;;;;0.26;74.46;100040.14;1859616;76;21193;-58
2020/12/24 06:30:21;;;;;;;26.97;16.75;;;;;;;0.27;74.53;100036.65;1844618;77;21640;-60
2020/12/24 06:32:55;;;;;;;28.52;15.95;;;;;;;0.30;74.47;100027.93;1818804;77;21133;-61
2020/12/24 06:35:40;;;;;;;26.97;15.50;;;;;;;0.34;74.50;100015.30;1842124;77;21714;-58
2020/12/24 06:38:11;;;;;;;27.05;16.20;;;;;;;0.34;74.50;100015.30;1842838;77;21157;-62
2020/12/24 06:40:40;;;;;;;28.98;16.45;;;;;;;0.37;74.26;100017.67;1786368;79;21134;-59
2020/12/24 06:43:09;;;;;;;27.77;16.40;;;;;;;0.39;74.09;100012.84;1793963;78;21650;-59
2020/12/24 06:45:39;;;;;;;27.17;14.93;;;;;;;0.38;73.94;100016.79;1765937;80;21604;-58
2020/12/24 06:48:24;;;;;;;27.35;15.75;;;;;;;0.37;73.89;100013.83;1775402;79;21276;-58
2020/12/24 06:51:01;;;;;;;26.57;15.35;;;;;;;0.34;73.97;100013.55;1833548;76;21154;-60
2020/12/24 06:53:34;;;;;;;27.15;14.43;;;;;;;0.34;73.97;100011.44;1773113;78;21286;-60
2020/12/24 06:56:22;;;;;;;26.07;14.35;;;;;;;0.35;73.99;100011.80;1823328;77;21147;-60
2020/12/24 06:59:01;;;;;;;26.57;14.47;;;;;;;0.37;73.84;100010.80;1821733;77;21676;-65
2020/12/24 07:01:31;;;;;;;27.00;15.10;;;;;;;0.38;73.82;100009.91;1814925;78;21561;-60
2020/12/24 07:04:01;;;;;;;28.77;14.83;;;;;;;0.42;73.74;100004.94;1777319;80;21215;-60
2020/12/24 07:06:49;;;;;;;25.62;14.43;;;;;;;0.42;73.64;100002.83;1758738;80;21174;-60
2020/12/24 07:09:26;;;;;;;27.73;15.20;;;;;;;0.41;73.70;100000.72;1758904;80;21609;-59
2020/12/24 07:11:55;;;;;;;26.40;15.28;;;;;;;0.47;73.70;100002.95;1763637;80;21619;-61
2020/12/24 07:14:38;;;;;;;24.20;14.35;;;;;;;0.49;73.54;100003.68;1810972;78;21206;-59
2020/12/24 07:17:14;;;;;;;25.85;14.18;;;;;;;0.50;73.59;100004.08;1759037;80;21733;-61
2020/12/24 07:19:50;;;;;;;24.23;14.10;;;;;;;0.49;73.62;100003.68;1800041;79;21586;-60
2020/12/24 07:22:19;;;;;;;25.40;14.73;;;;;;;0.58;73.37;100001.53;1790655;78;21267;-59
2020/12/24 07:24:57;;;;;;;24.85;14.05;;;;;;;0.63;73.16;99998.24;1796545;79;21571;-59
2020/12/24 07:27:25;;;;;;;25.82;15.10;;;;;;;0.67;73.08;100003.09;1726894;82;21233;-59
2020/12/24 07:29:53;;;;;;;22.32;12.85;;;;;;;0.74;72.98;99999.26;1805417;78;21621;-59
2020/12/24 07:32:22;;;;;;;23.50;13.25;;;;;;;0.85;72.62;99996.53;1809332;79;21602;-59
2020/12/24 07:34:50;;;;;;;24.32;13.03;;;;;;;0.85;72.62;99996.53;1802601;79;21673;-59
2020/12/24 07:37:20;;;;;;;24.15;13.00;;;;;;;0.88;72.38;100002.34;1781330;79;21166;-60
2020/12/24 07:39:52;;;;;;;26.52;15.35;;;;;;;0.89;72.25;99996.28;1749836;78;21752;-61
2020/12/24 07:42:24;;;;;;;22.52;13.25;;;;;;;0.92;72.41;99994.80;1799497;79;21774;-58
2020/12/24 07:44:54;;;;;;;23.95;12.85;;;;;;;0.95;72.06;99986.09;1795138;79;21130;-65
2020/12/24 07:47:24;;;;;;;25.37;14.58;;;;;;;0.95;72.12;99987.38;1792682;78;21816;-61
2020/12/24 07:49:52;;;;;;;23.65;12.68;;;;;;;0.93;71.96;99983.61;1804841;78;21335;-59
2020/12/24 07:52:21;;;;;;;22.32;12.55;;;;;;;0.95;72.17;99984.80;1780185;79;21788;-59
2020/12/24 07:54:49;;;;;;;23.18;13.98;;;;;;;1.02;72.03;99986.92;1727316;82;21612;-60
2020/12/24 07:57:24;;;;;;;22.82;13.60;;;;;;;1.11;71.92;99983.43;1729621;80;21715;-60
2020/12/24 08:00:00;;;;;;;;;;;;;;;1.18;71.66;99977.00;1799657;79;21201;-61
2020/12/24 08:02:42;;;;;;;24.20;14.35;;;;;;;1.20;71.32;99969.57;1852747;77;22212;-59
2020/12/24 08:05:13;;;;;;;20.70;11.95;;;;;;;1.08;71.50;99967.27;1806472;78;21144;-60
2020/12/24 08:07:41;;;;;;;22.42;13.22;;;;;;;1.07;71.39;99968.19;1797614;78;21613;-60
2020/12/24 08:10:10;;;;;;;22.48;12.65;;;;;;;1.09;71.49;99965.52;1797616;78;21573;-61
2020/12/24 08:12:39;;;;;;;18.80;11.48;;;;;;;1.17;71.43;99971.02;1793946;78;21538;-63
2020/12/24 08:15:17;;;;;;;21.85;13.83;;;;;;;1.19;71.22;99960.20;1792436;78;22084;-64
2020/12/24 08:17:56;;;;;;;19.87;12.28;;;;;;;1.24;71.08;99970.20;1778825;78;21620;-58
2020/12/24 08:20:48;;;;;;;18.48;11.12;;;;;;;1.25;71.32;99968.84;1810415;78;21226;-60
2020/12/24 08:23:52;;;;;;;19.98;11.65;;;;;;;1.27;70.97;99963.59;1790394;80;21677;-60
2020/12/24 08:26:21;;;;;;;18.60;10.85;;;;;;;1.30;71.13;99966.83;1793018;80;21593;-61
2020/12/24 08:28:55;;;;;;;16.65;10.95;;;;;;;1.34;70.95;99964.88;1792970;78;21133;-60
2020/12/24 08:31:25;;;;;;;18.48;10.85;;;;;;;1.41;70.81;99967.44;1793799;80;21521;-60
2020/12/24 08:33:54;;;;;;;20.52;12.00;;;;;;;1.47;70.63;99964.95;1793023;80;21722;-60
2020/12/24 08:36:27;;;;;;;17.65;10.63;;;;;;;1.48;70.37;99964.03;1793079;78;21543;-60
2020/12/24 08:39:06;;;;;;;18.48;10.53;;;;;;;1.50;70.23;99968.19;1792410;80;21174;-61
2020/12/24 08:41:41;;;;;;;17.57;10.68;;;;;;;1.48;70.23;99964.03;1809711;78;21190;-59
2020/12/24 08:44:10;;;;;;;18.25;10.50;;;;;;;1.50;70.51;99963.03;1792858;80;21127;-61
2020/12/24 08:46:38;;;;;;;17.67;10.10;;;;;;;1.55;70.57;99959.72;1792887;78;21146;-59
2020/12/24 08:49:24;;;;;;;17.37;9.60;;;;;;;1.59;70.56;99950.87;1793296;78;21284;-62
2020/12/24 08:52:20;;;;;;;17.62;10.05;;;;;;;1.64;70.34;99947.19;1797356;78;21173;-60
2020/12/24 08:54:59;;;;;;;15.85;10.05;;;;;;;1.61;70.15;99940.46;1770373;80;21157;-62
2020/12/24 08:57:27;;;;;;;18.15;10.65;;;;;;;1.67;70.19;99934.93;1792572;78;21182;-61
2020/12/24 08:59:57;;;;;;;16.17;9.83;;;;;;;1.75;69.97;99924.17;1812190;78;21170;-60
2020/12/24 09:02:31;;;;;;;14.80;9.48;;;;;;;1.79;69.67;99926.44;1809933;78;21171;-59
2020/12/24 09:05:01;;;;;;;17.67;9.33;;;;;;;1.85;69.84;99923.48;1798291;78;21184;-62
2020/12/24 09:07:32;;;;;;;15.40;9.30;;;;;;;1.85;69.20;99920.08;1807559;78;21577;-63
2020/12/24 09:10:11;;;;;;;18.20;10.03;;;;;;;1.86;69.26;99919.14;1795409;78;21207;-68
2020/12/24 09:12:42;;;;;;;16.87;9.70;;;;;;;1.82;69.09;99922.86;1788010;79;21670;-61
2020/12/24 09:15:13;;;;;;;16.37;9.30;;;;;;;1.79;69.31;99918.71;1763726;80;21745;-64
2020/12/24 09:17:52;;;;;;;16.42;9.30;;;;;;;1.75;69.24;99912.13;1801059;78;21688;-64
2020/12/24 09:20:28;;;;;;;16.07;9.98;;;;;;;1.63;69.56;99916.75;1743810;82;21619;-66
2020/12/24 09:23:00;;;;;;;20.35;10.95;;;;;;;1.67;69.67;99923.34;1787145;79;21163;-62
2020/12/24 09:25:44;;;;;;;18.60;11.28;;;;;;;1.70;69.47;99920.59;1793412;79;21546;-64
2020/12/24 09:28:24;;;;;;;18.82;10.20;;;;;;;1.68;69.75;99911.28;1790850;79;21274;-62
2020/12/24 09:30:54;;;;;;;14.83;9.30;;;;;;;1.77;69.98;99908.15;1794694;79;21273;-61
2020/12/24 09:33:22;;;;;;;17.07;9.70;;;;;;;1.77;69.63;99901.71;1788101;78;21154;-60
2020/12/24 09:35:51;;;;;;;15.58;8.78;;;;;;;1.73;69.64;99906.22;1793879;78;21951;-64
2020/12/24 09:38:22;;;;;;;13.48;8.50;;;;;;;1.76;69.44;99909.91;1794500;79;21702;-61
2020/12/24 09:40:52;;;;;;;16.82;9.55;;;;;;;1.74;69.49;99908.33;1763925;79;21279;-63
2020/12/24 09:45:58;;;;;;;16.12;9.85;;;;;;;1.71;69.20;99907.25;1796682;79;21688;-66
2020/12/24 09:48:27;;;;;;;16.05;9.30;;;;;;;1.65;69.44;99911.50;1791220;79;21139;-63
2020/12/24 09:50:55;;;;;;;16.17;9.78;;;;;;;1.60;69.52;99914.34;1797787;79;21595;-64
2020/12/24 09:53:24;;;;;;;15.95;9.80;;;;;;;1.60;69.75;99916.92;1787765;79;21563;-64
2020/12/24 09:55:53;;;;;;;15.43;9.38;;;;;;;1.60;69.79;99912.59;1786100;80;21624;-66
2020/12/24 09:58:21;;;;;;;17.75;10.60;;;;;;;1.55;70.11;99903.50;1790346;79;21566;-65
2020/12/24 10:00:50;;;;;;;17.92;10.03;;;;;;;1.57;70.05;99908.12;1801576;79;21630;-63
2020/12/24 10:03:18;;;;;;;18.87;11.03;;;;;;;1.59;70.03;99902.40;1753167;82;21167;-65
2020/12/24 10:05:47;;;;;;;19.35;9.98;;;;;;;1.57;70.12;99909.41;1753702;80;21597;-61
2020/12/24 10:08:15;;;;;;;18.73;10.08;;;;;;;1.51;70.36;99906.75;1760098;80;21542;-62
2020/12/24 10:10:44;;;;;;;18.55;9.55;;;;;;;1.55;70.53;99899.64;1754972;80;21645;-60
2020/12/24 10:13:13;;;;;;;17.95;9.43;;;;;;;1.57;70.42;99897.81;1775563;80;21135;-60
2020/12/24 10:15:41;;;;;;;15.40;9.48;;;;;;;1.58;70.55;99892.56;1700274;83;21143;-61
2020/12/24 10:18:09;;;;;;;15.58;9.78;;;;;;;1.63;70.53;99891.45;1699368;83;21634;-61
2020/12/24 10:20:38;;;;;;;18.27;10.72;;;;;;;1.59;70.69;99889.52;1754106;80;21208;-59
2020/12/24 10:23:09;;;;;;;18.02;10.43;;;;;;;1.60;70.96;99884.73;1755787;82;21579;-61
2020/12/24 10:25:39;;;;;;;17.50;10.43;;;;;;;1.69;70.93;99885.92;1756018;81;21571;-60
2020/12/24 10:28:08;;;;;;;18.45;11.15;;;;;;;1.76;70.93;99888.01;1757276;80;21760;-61
2020/12/24 10:30:36;;;;;;;17.77;10.48;;;;;;;1.85;70.85;99885.30;1773758;80;21601;-62
2020/12/24 10:33:05;;;;;;;19.12;11.78;;;;;;;1.87;70.56;99877.02;1754320;81;21784;-62
2020/12/24 10:35:36;;;;;;;18.92;10.98;;;;;;;1.89;70.46;99872.59;1703813;83;21578;-60
2020/12/24 10:38:04;;;;;;;20.35;10.48;;;;;;;1.90;70.25;99862.64;1706841;83;21226;-61
2020/12/24 10:40:33;;;;;;;24.90;12.50;;;;;;;1.90;70.34;99863.93;1697847;83;21574;-59
2020/12/24 10:43:01;;;;;;;23.60;12.25;;;;;;;1.83;70.32;99858.34;1754935;80;21658;-58
2020/12/24 10:45:30;;;;;;;19.40;11.88;;;;;;;1.76;70.66;99858.84;1757651;80;21634;-59
2020/12/24 10:48:00;;;;;;;23.65;12.07;;;;;;;1.73;70.93;99852.59;1704074;83;21171;-61
2020/12/24 10:50:28;;;;;;;24.10;12.88;;;;;;;1.72;70.96;99853.05;1693489;85;21740;-60
2020/12/24 10:52:57;;;;;;;18.35;11.93;;;;;;;1.74;71.25;99846.50;1751917;80;21218;-60
2020/12/24 10:55:27;;;;;;;23.05;12.23;;;;;;;1.77;71.22;99839.88;1753363;82;21565;-60
2020/12/24 10:57:56;;;;;;;24.00;13.13;;;;;;;1.76;71.27;99839.06;1752809;82;22278;-62
2020/12/24 11:00:24;;;;;;;21.37;12.82;;;;;;;1.78;71.32;99837.66;1754762;80;21550;-61
2020/12/24 11:02:53;;;;;;;20.88;11.70;;;;;;;1.80;71.33;99840.53;1784254;78;21574;-61
2020/12/24 11:05:25;;;;;;;18.67;11.25;;;;;;;1.79;71.41;99833.70;1813519;78;21776;-61
2020/12/24 11:07:53;;;;;;;22.25;12.15;;;;;;;1.79;71.36;99836.73;1808411;79;21554;-61
2020/12/24 11:10:21;;;;;;;21.70;13.65;;;;;;;1.77;71.66;99835.55;1792678;78;21320;-62
2020/12/24 11:12:50;;;;;;;23.95;15.55;;;;;;;1.79;71.67;99832.87;1800643;79;22296;-62
2020/12/24 11:15:19;;;;;;;22.45;12.68;;;;;;;1.78;71.59;99829.47;1786768;78;21627;-63
2020/12/24 11:17:47;;;;;;;20.95;11.38;;;;;;;1.75;71.59;99832.27;1797358;78;21618;-62
2020/12/24 11:20:17;;;;;;;22.90;11.73;;;;;;;1.71;71.67;99837.23;1759500;81;21576;-61
2020/12/24 11:22:46;;;;;;;20.85;11.18;;;;;;;1.72;71.85;99835.48;1827144;78;21129;-61
2020/12/24 11:25:16;;;;;;;20.48;12.18;;;;;;;1.75;71.83;99830.15;1720324;82;21179;-62
2020/12/24 11:27:45;;;;;;;19.02;10.48;;;;;;;1.77;71.81;99830.87;1806911;79;21166;-62
2020/12/24 11:30:14;;;;;;;21.12;10.85;;;;;;;1.75;71.50;99823.71;1789635;78;21571;-61
2020/12/24 11:32:43;;;;;;;22.52;11.45;;;;;;;1.69;71.78;99820.23;1786933;80;21171;-61
2020/12/24 11:35:13;;;;;;;19.42;11.95;;;;;;;1.67;71.89;99815.16;1786989;80;21689;-61
2020/12/24 11:37:43;;;;;;;18.48;10.63;;;;;;;1.70;72.07;99813.70;1787028;80;21278;-62
2020/12/24 11:40:13;;;;;;;19.95;11.33;;;;;;;1.75;71.92;99810.37;1793353;78;21558;-61
2020/12/24 11:42:43;;;;;;;19.77;11.10;;;;;;;1.71;71.84;99810.66;1730083;81;21568;-61
2020/12/24 11:45:11;;;;;;;26.50;11.50;;;;;;;1.67;71.99;99803.58;1740845;82;21163;-60
2020/12/24 11:47:40;;;;;;;22.02;11.15;;;;;;;1.68;72.03;99797.95;1718636;83;22282;-59
2020/12/24 11:50:09;;;;;;;19.62;10.98;;;;;;;1.68;72.15;99797.95;1787549;78;21171;-61
2020/12/24 11:52:38;;;;;;;19.05;11.38;;;;;;;1.68;72.25;99798.81;1749515;82;21819;-61
2020/12/24 11:55:07;;;;;;;20.62;11.53;;;;;;;1.66;72.30;99794.66;1787910;78;21194;-60
2020/12/24 11:57:39;;;;;;;24.05;12.53;;;;;;;1.63;72.46;99798.28;1786895;79;21729;-60
2020/12/24 12:00:09;;;;;;;21.95;12.23;;;;;;;1.59;72.49;99793.77;1787267;79;21589;-60
2020/12/24 12:02:41;;;;;;;22.85;13.15;;;;;;;1.55;72.68;99787.19;1807487;79;21183;-60
2020/12/24 12:05:09;;;;;;;22.05;12.60;;;;;;;1.47;72.78;99776.99;1783687;79;21781;-61
2020/12/24 12:07:39;;;;;;;25.37;13.38;;;;;;;1.38;72.89;99780.99;1795349;78;21575;-63
2020/12/24 12:10:08;;;;;;;25.40;12.90;;;;;;;1.18;73.27;99775.82;1714620;82;21211;-60
2020/12/24 12:12:36;;;;;;;21.97;11.90;;;;;;;1.11;73.55;99772.42;1791427;79;22170;-59
2020/12/24 12:15:05;;;;;;;30.92;18.10;;;;;;;1.08;73.83;99773.45;1778741;81;21642;-61
2020/12/24 12:17:34;;;;;;;27.20;14.45;;;;;;;1.10;73.94;99774.17;1779078;78;21532;-60
2020/12/24 12:20:02;;;;;;;29.07;16.60;;;;;;;1.10;73.99;99774.63;1782653;79;21159;-62
2020/12/24 12:22:31;;;;;;;32.28;17.42;;;;;;;1.06;74.00;99765.83;1778507;81;21203;-60
2020/12/24 12:25:00;;;;;;;23.83;13.80;;;;;;;1.08;74.05;99769.12;1778401;81;21175;-61
2020/12/24 12:27:29;;;;;;;20.97;11.95;;;;;;;1.14;74.08;99769.20;1717192;83;21329;-60
2020/12/24 12:29:58;;;;;;;22.17;11.48;;;;;;;1.17;73.98;99770.28;1783860;78;21191;-61
2020/12/24 12:32:29;;;;;;;22.15;11.38;;;;;;;1.20;74.06;99766.25;1779092;80;21145;-62
2020/12/24 12:34:57;;;;;;;22.25;12.60;;;;;;;1.21;73.88;99773.04;1778052;81;21578;-62
2020/12/24 12:37:26;;;;;;;21.82;12.03;;;;;;;1.17;73.80;99766.89;1786826;79;21863;-61
2020/12/24 12:39:54;;;;;;;18.87;11.10;;;;;;;1.11;73.78;99770.67;1782959;79;21131;-62
2020/12/24 12:42:23;;;;;;;22.62;11.95;;;;;;;1.10;73.90;99755.33;1781096;78;21532;-60
2020/12/24 12:44:52;;;;;;;21.85;12.78;;;;;;;1.11;73.89;99750.55;1781495;78;21494;-60
2020/12/24 12:47:20;;;;;;;24.63;12.43;;;;;;;1.10;73.96;99752.76;1743198;80;21156;-60
2020/12/24 12:49:49;;;;;;;26.97;12.35;;;;;;;1.03;73.98;99742.85;1778781;81;21527;-60
2020/12/24 12:52:18;;;;;;;22.77;12.00;;;;;;;1.01;74.14;99741.30;1781389;79;21543;-60
2020/12/24 12:54:47;;;;;;;21.42;11.68;;;;;;;1.01;74.24;99736.16;1703172;81;21652;-60
2020/12/24 12:57:18;;;;;;;24.60;12.75;;;;;;;0.97;74.38;99742.41;1711915;83;21682;-60
2020/12/24 12:59:48;;;;;;;22.87;13.18;;;;;;;0.97;74.56;99725.69;1764101;79;21527;-60
2020/12/24 13:02:16;;;;;;;23.45;12.03;;;;;;;0.97;74.56;99725.69;1782923;79;21697;-60
2020/12/24 13:04:45;;;;;;;22.87;13.13;;;;;;;0.95;74.59;99722.39;1791843;80;21777;-60
2020/12/24 13:07:13;;;;;;;23.42;13.13;;;;;;;0.92;74.76;99727.25;1798195;79;21547;-60
2020/12/24 13:09:42;;;;;;;20.45;11.78;;;;;;;0.95;74.91;99724.50;1779642;78;21570;-60
2020/12/24 13:12:10;;;;;;;22.62;11.70;;;;;;;0.99;74.73;99713.08;1786835;78;21553;-60
2020/12/24 13:14:40;;;;;;;26.62;11.63;;;;;;;0.94;74.52;99708.71;1781039;79;21737;-60
2020/12/24 13:17:09;;;;;;;26.80;12.65;;;;;;;0.88;74.44;99701.38;1783005;78;21622;-59
2020/12/24 13:19:37;;;;;;;23.67;13.30;;;;;;;0.91;74.72;99710.17;1805217;78;21710;-60
2020/12/24 13:22:06;;;;;;;22.55;11.83;;;;;;;0.91;74.69;99711.92;1781520;79;21147;-61
2020/12/24 13:24:34;;;;;;;20.92;11.22;;;;;;;0.92;74.66;99712.28;1772917;79;21739;-60
2020/12/24 13:27:03;;;;;;;24.35;12.05;;;;;;;0.92;74.52;99698.13;1773748;78;21637;-60
2020/12/24 13:29:31;;;;;;;21.75;12.53;;;;;;;0.91;74.53;99701.63;1792360;79;21167;-61
2020/12/24 13:32:00;;;;;;;22.50;10.60;;;;;;;0.86;74.55;99695.95;1787740;79;21539;-61
2020/12/24 13:34:28;;;;;;;21.70;11.73;;;;;;;0.81;74.66;99702.69;1773563;80;21579;-60
2020/12/24 13:36:57;;;;;;;22.42;11.63;;;;;;;0.77;74.68;99703.33;1786130;79;21523;-60
2020/12/24 13:39:27;;;;;;;20.62;11.95;;;;;;;0.78;74.86;99713.15;1799161;79;21155;-60
2020/12/24 13:41:55;;;;;;;22.37;11.80;;;;;;;0.77;74.96;99709.75;1785286;79;21323;-60
2020/12/24 13:44:24;;;;;;;21.15;11.05;;;;;;;0.75;75.11;99712.07;1777501;79;21546;-59
2020/12/24 13:46:52;;;;;;;25.05;12.98;;;;;;;0.68;75.20;99710.77;1736390;82;21618;-61
2020/12/24 13:49:21;;;;;;;23.00;12.55;;;;;;;0.68;75.59;99710.77;1764535;80;21530;-61
2020/12/24 13:51:54;;;;;;;24.12;13.45;;;;;;;0.68;75.75;99709.02;1785875;79;21087;-61
2020/12/24 13:54:23;;;;;;;23.18;12.63;;;;;;;0.63;75.76;99695.65;1792575;79;21163;-60
2020/12/24 13:56:54;;;;;;;22.50;11.40;;;;;;;0.56;76.00;99694.38;1792859;79;21084;-58
2020/12/24 13:59:22;;;;;;;23.47;13.25;;;;;;;0.52;76.26;99693.73;1792843;80;21565;-58
2020/12/24 14:01:55;;;;;;;25.30;13.03;;;;;;;0.57;76.37;99700.34;1779890;79;21187;-60
2020/12/24 14:04:25;;;;;;;26.47;14.63;;;;;;;0.57;76.32;99697.31;1803346;78;21155;-59
2020/12/24 14:06:54;;;;;;;23.87;13.40;;;;;;;0.60;76.44;99689.86;1715038;82;21686;-61
2020/12/24 14:09:23;;;;;;;25.40;12.18;;;;;;;0.63;76.60;99684.55;1811435;79;21600;-60
2020/12/24 14:11:53;;;;;;;26.62;13.05;;;;;;;0.66;76.23;99686.91;1811303;79;21717;-58
2020/12/24 14:14:21;;;;;;;24.02;12.23;;;;;;;0.67;76.23;99682.95;1810103;79;21622;-58
2020/12/24 14:16:50;;;;;;;25.25;14.28;;;;;;;0.67;76.10;99664.13;1741464;82;21733;-58
2020/12/24 14:19:20;;;;;;;28.62;15.28;;;;;;;0.69;76.21;99663.13;1811151;79;21571;-59
2020/12/24 14:21:49;;;;;;;26.45;14.10;;;;;;;0.69;76.12;99663.13;1741047;82;21575;-59
2020/12/24 14:24:17;;;;;;;22.58;12.05;;;;;;;0.73;76.08;99675.31;1778614;81;21689;-59
2020/12/24 14:26:46;;;;;;;21.87;12.28;;;;;;;0.73;76.05;99665.85;1756873;80;21590;-59
2020/12/24 14:29:15;;;;;;;25.88;15.28;;;;;;;0.68;76.09;99652.91;1779426;80;21584;-61
2020/12/24 14:31:43;;;;;;;23.52;14.10;;;;;;;0.66;76.23;99648.34;1778690;80;21188;-62
2020/12/24 14:34:13;;;;;;;24.52;13.40;;;;;;;0.61;76.41;99646.51;1779078;81;21715;-62
2020/12/24 14:36:41;;;;;;;19.52;11.22;;;;;;;0.61;76.41;99646.51;1778640;80;21651;-62
2020/12/24 14:39:10;;;;;;;22.10;12.80;;;;;;;0.59;76.53;99641.94;1779570;80;21588;-61
2020/12/24 14:41:39;;;;;;;22.32;12.73;;;;;;;0.59;76.66;99638.08;1779123;80;21644;-62
2020/12/24 14:44:07;;;;;;;19.50;11.00;;;;;;;0.59;76.78;99635.05;1779502;81;21580;-60
2020/12/24 14:46:37;;;;;;;20.65;10.38;;;;;;;0.47;76.89;99620.38;1779253;80;21568;-64
2020/12/24 14:49:06;;;;;;;18.95;10.15;;;;;;;0.47;76.89;99620.38;1778858;80;21177;-64
2020/12/24 14:51:36;;;;;;;18.85;10.45;;;;;;;0.43;77.01;99610.73;1779381;81;21604;-63
2020/12/24 14:54:04;;;;;;;20.17;11.05;;;;;;;0.40;77.22;99613.52;1779491;81;21136;-60
2020/12/24 14:56:34;;;;;;;20.27;10.55;;;;;;;0.40;77.05;99604.52;1779147;81;21615;-65
2020/12/24 14:59:03;;;;;;;18.82;10.20;;;;;;;0.34;77.40;99596.37;1778397;81;21156;-63
